Time;durP1;ratioP1;P1;durP2;ratioP2;P2;SDS_P1;SDS_P2;PMS_P1;PMS_P2;Temp;Humidity;BMP_temperature;BMP_pressure;BME280_temperature;BME280_humidity;BME280_pressure;Samples;Min_cycle;Max_cycle;Signal;HPM_P1;HPM_P2
2023/11/03 00:01:47;;;;;;;;;;;;;;;5.85;48.59;92383.22;5043691;28;19927;-56
2023/11/03 00:04:12;;;;;;;;;;;;;;;4.40;52.27;92391.56;5049276;28;19925;-57
2023/11/03 00:06:43;;;;;;;;;;;;;;;4.97;53.16;92401.03;5041969;28;20533;-57
2023/11/03 00:09:09;;;;;;;;;;;;;;;5.47;52.33;92398.38;5035739;28;19948;-57
2023/11/03 00:11:35;;;;;;;;;;;;;;;4.55;51.72;92388.56;5043261;28;19959;-59
2023/11/03 00:14:02;;;;;;;;;;;;;;;5.15;49.68;92399.44;5042670;28;19994;-59
2023/11/03 00:16:28;;;;;;;;;;;;;;;5.32;49.70;92385.63;5043869;28;20214;-60
2023/11/03 00:18:57;;;;;;;;;;;;;;;4.32;50.68;92383.94;5035427;28;20003;-64
2023/11/03 00:21:23;;;;;;;;;;;;;;;4.65;51.01;92387.22;5048392;28;20304;-68
2023/11/03 00:23:48;;;;;;;;;;;;;;;5.27;49.23;92385.50;5040915;28;19939;-68
2023/11/03 00:26:13;;;;;;;;;;;;;;;4.81;50.20;92396.38;5049596;28;19939;-68
2023/11/03 00:28:39;;;;;;;;;;;;;;;4.95;50.79;92404.94;5041360;28;19959;-69
2023/11/03 00:31:05;;;;;;;;;;;;;;;5.13;50.19;92409.38;5048497;28;19957;-67
2023/11/03 00:33:30;;;;;;;;;;;;;;;5.66;49.06;92422.88;5040125;28;20506;-68
2023/11/03 00:35:57;;;;;;;;;;;;;;;5.94;51.96;92424.09;5040111;28;19928;-66
2023/11/03 00:38:22;;;;;;;;;;;;;;;6.09;51.30;92422.84;5040717;28;20057;-66
2023/11/03 00:40:47;;;;;;;;;;;;;;;5.83;52.60;92428.31;5041356;28;20070;-67
2023/11/03 00:43:14;;;;;;;;;;;;;;;6.03;50.28;92423.75;5040868;28;19940;-69
2023/11/03 00:45:39;;;;;;;;;;;;;;;5.69;54.17;92427.72;5041092;28;19970;-69
2023/11/03 00:48:05;;;;;;;;;;;;;;;5.76;52.15;92432.91;5040603;28;19924;-64
2023/11/03 00:50:30;;;;;;;;;;;;;;;5.94;49.95;92421.44;5042326;28;20731;-68
2023/11/03 00:52:56;;;;;;;;;;;;;;;6.09;48.85;92438.69;5039645;28;19935;-67
2023/11/03 00:55:21;;;;;;;;;;;;;;;4.63;50.31;92440.16;5045346;28;20015;-66
2023/11/03 00:57:47;;;;;;;;;;;;;;;5.37;49.87;92430.56;5043048;28;19999;-70
2023/11/03 01:00:13;;;;;;;;;;;;;;;5.85;50.66;92430.75;5046693;28;20491;-65
2023/11/03 01:02:41;;;;;;;;;;;;;;;6.04;50.06;92433.28;5043562;28;20092;-65
2023/11/03 01:05:08;;;;;;;;;;;;;;;6.22;50.81;92429.72;5040176;28;19924;-69
2023/11/03 01:07:34;;;;;;;;;;;;;;;6.20;51.76;92437.09;5038946;28;19951;-70
2023/11/03 01:10:01;;;;;;;;;;;;;;;6.20;48.24;92434.44;5047841;28;19950;-64
2023/11/03 01:12:26;;;;;;;;;;;;;;;5.83;48.08;92438.06;5037117;28;19973;-64
2023/11/03 01:14:52;;;;;;;;;;;;;;;5.45;49.79;92429.47;5043360;28;20125;-64
2023/11/03 01:17:17;;;;;;;;;;;;;;;5.34;50.40;92431.06;5045138;28;19932;-63
2023/11/03 01:19:42;;;;;;;;;;;;;;;4.42;54.87;92436.13;5041740;28;19957;-64
2023/11/03 01:22:08;;;;;;;;;;;;;;;3.89;53.34;92438.19;5045081;28;19924;-64
2023/11/03 01:24:33;;;;;;;;;;;;;;;5.40;50.48;92434.59;5044221;28;20014;-63
2023/11/03 01:26:59;;;;;;;;;;;;;;;4.99;50.05;92424.53;5049657;28;19920;-64
2023/11/03 01:29:25;;;;;;;;;;;;;;;5.48;49.83;92437.75;5043975;28;19965;-64
2023/11/03 01:31:50;;;;;;;;;;;;;;;4.12;53.78;92421.78;5043295;28;20054;-64
2023/11/03 01:34:15;;;;;;;;;;;;;;;3.94;55.59;92426.00;5044731;28;19925;-64
2023/11/03 01:36:40;;;;;;;;;;;;;;;4.96;51.18;92409.97;5043785;28;20019;-62
2023/11/03 01:39:08;;;;;;;;;;;;;;;4.64;51.76;92418.06;5044659;28;20413;-64
2023/11/03 01:41:33;;;;;;;;;;;;;;;4.43;52.57;92416.66;5045257;28;19929;-63
2023/11/03 01:44:09;;;;;;;;;;;;;;;4.51;51.39;92426.09;5046103;28;20519;-63
2023/11/03 01:46:38;;;;;;;;;;;;;;;3.53;54.13;92435.19;5039747;28;19920;-62
2023/11/03 01:49:03;;;;;;;;;;;;;;;4.30;51.68;92430.75;5047055;28;19958;-64
2023/11/03 01:51:28;;;;;;;;;;;;;;;4.23;52.39;92422.09;5043399;28;19951;-62
2023/11/03 01:53:54;;;;;;;;;;;;;;;4.69;50.72;92420.84;5043516;28;19920;-62
2023/11/03 01:56:19;;;;;;;;;;;;;;;4.01;51.98;92415.41;5045898;28;20785;-64
2023/11/03 01:58:44;;;;;;;;;;;;;;;3.55;52.79;92427.91;5048232;28;20349;-63
2023/11/03 02:01:09;;;;;;;;;;;;;;;3.66;53.14;92415.88;5046841;28;19977;-62
2023/11/03 02:03:35;;;;;;;;;;;;;;;3.05;54.17;92442.50;5048030;28;19957;-64
2023/11/03 02:06:00;;;;;;;;;;;;;;;2.60;55.74;92433.59;5045846;28;19936;-62
2023/11/03 02:08:25;;;;;;;;;;;;;;;2.72;54.68;92427.69;5046561;28;19957;-63
2023/11/03 02:10:51;;;;;;;;;;;;;;;2.47;55.51;92423.09;5048018;28;20365;-63
2023/11/03 02:13:16;;;;;;;;;;;;;;;2.49;56.34;92421.88;5053714;28;19946;-63
2023/11/03 02:15:41;;;;;;;;;;;;;;;2.56;55.11;92427.13;5048129;28;20336;-63
2023/11/03 02:18:10;;;;;;;;;;;;;;;2.87;54.80;92430.88;5042940;28;19944;-64
2023/11/03 02:20:36;;;;;;;;;;;;;;;2.74;54.30;92434.34;5047499;28;20459;-64
2023/11/03 02:23:01;;;;;;;;;;;;;;;2.67;55.04;92432.75;5046558;28;20016;-65
2023/11/03 02:25:27;;;;;;;;;;;;;;;3.64;52.67;92436.38;5050002;28;19942;-64
2023/11/03 02:27:52;;;;;;;;;;;;;;;3.12;52.61;92438.03;5045033;28;20456;-65
2023/11/03 02:30:17;;;;;;;;;;;;;;;2.29;55.91;92439.50;5049433;28;19950;-65
2023/11/03 02:32:43;;;;;;;;;;;;;;;1.56;58.76;92448.00;5042639;28;19961;-65
2023/11/03 02:35:09;;;;;;;;;;;;;;;2.89;54.56;92451.66;5042673;28;19956;-64
2023/11/03 02:37:34;;;;;;;;;;;;;;;3.68;52.15;92443.59;5043435;28;19964;-64
2023/11/03 02:40:00;;;;;;;;;;;;;;;3.51;52.92;92450.41;5042821;28;20525;-64
2023/11/03 02:42:25;;;;;;;;;;;;;;;3.89;52.37;92439.00;5044389;28;19983;-64
2023/11/03 02:44:50;;;;;;;;;;;;;;;3.76;52.22;92439.91;5044774;28;20598;-66
2023/11/03 02:47:15;;;;;;;;;;;;;;;3.83;52.20;92444.31;5043841;28;20563;-64
2023/11/03 02:49:41;;;;;;;;;;;;;;;3.80;51.87;92456.06;5044987;28;20315;-65
2023/11/03 02:52:06;;;;;;;;;;;;;;;4.35;50.87;92451.97;5041617;28;19979;-65
2023/11/03 02:54:32;;;;;;;;;;;;;;;3.48;53.12;92461.34;5045885;28;19936;-64
2023/11/03 02:56:57;;;;;;;;;;;;;;;3.00;54.10;92458.13;5050389;28;19959;-64
2023/11/03 02:59:22;;;;;;;;;;;;;;;3.40;53.75;92463.16;5046116;28;19952;-66
2023/11/03 03:01:48;;;;;;;;;;;;;;;3.75;52.51;92463.81;5050568;28;20136;-65
2023/11/03 03:04:13;;;;;;;;;;;;;;;3.62;53.29;92469.94;5047173;28;19985;-64
2023/11/03 03:06:42;;;;;;;;;;;;;;;3.54;54.06;92463.13;5048378;28;19937;-65
2023/11/03 03:09:07;;;;;;;;;;;;;;;3.83;52.69;92455.66;5047784;28;19991;-65
2023/11/03 03:11:33;;;;;;;;;;;;;;;4.12;52.43;92457.88;5050636;28;19986;-65
2023/11/03 03:13:58;;;;;;;;;;;;;;;3.88;52.03;92455.81;5047781;28;19949;-65
2023/11/03 03:16:24;;;;;;;;;;;;;;;4.71;50.26;92445.16;5052032;28;20016;-66
2023/11/03 03:18:49;;;;;;;;;;;;;;;4.15;51.89;92455.59;5042781;28;19933;-64
2023/11/03 03:21:17;;;;;;;;;;;;;;;4.47;51.06;92453.91;5051046;28;19978;-66
2023/11/03 03:23:43;;;;;;;;;;;;;;;4.45;51.52;92462.00;5048473;28;19927;-64
2023/11/03 03:26:08;;;;;;;;;;;;;;;3.53;53.00;92464.13;5051895;28;19935;-65
2023/11/03 03:28:33;;;;;;;;;;;;;;;3.78;53.35;92458.13;5043989;28;19993;-66
2023/11/03 03:30:59;;;;;;;;;;;;;;;4.26;51.80;92453.28;5043847;28;19975;-63
2023/11/03 03:33:25;;;;;;;;;;;;;;;3.80;52.63;92456.06;5042589;28;20390;-61
2023/11/03 03:35:50;;;;;;;;;;;;;;;2.36;56.49;92467.38;5044467;28;19939;-62
2023/11/03 03:38:15;;;;;;;;;;;;;;;2.35;57.22;92465.75;5042829;28;19916;-62
2023/11/03 03:40:40;;;;;;;;;;;;;;;3.95;52.50;92453.13;5045174;28;19964;-62
2023/11/03 03:43:06;;;;;;;;;;;;;;;3.93;52.52;92455.97;5042413;28;20173;-63
2023/11/03 03:45:31;;;;;;;;;;;;;;;2.07;56.94;92466.78;5044229;28;19938;-63
2023/11/03 03:47:56;;;;;;;;;;;;;;;3.00;55.72;92472.03;5043514;28;19953;-64
2023/11/03 03:50:21;;;;;;;;;;;;;;;2.94;55.73;92477.31;5044951;28;19929;-63
2023/11/03 03:52:47;;;;;;;;;;;;;;;3.93;53.41;92466.50;5039367;28;19950;-63
2023/11/03 03:55:12;;;;;;;;;;;;;;;4.52;51.15;92465.41;5048460;28;19982;-62
2023/11/03 03:57:37;;;;;;;;;;;;;;;4.61;51.89;92476.47;5041787;28;19921;-64
2023/11/03 04:00:03;;;;;;;;;;;;;;;3.63;53.83;92477.63;5048214;28;19963;-63
2023/11/03 04:02:28;;;;;;;;;;;;;;;3.76;54.14;92481.19;5043037;28;19935;-63
2023/11/03 04:04:53;;;;;;;;;;;;;;;4.23;51.83;92477.41;5048552;28;20058;-64
2023/11/03 04:07:19;;;;;;;;;;;;;;;4.45;50.96;92496.25;5047251;28;20568;-63
2023/11/03 04:09:44;;;;;;;;;;;;;;;3.51;54.18;92497.75;5041713;28;20430;-63
2023/11/03 04:12:10;;;;;;;;;;;;;;;4.61;52.14;92480.91;5045564;28;19968;-64
2023/11/03 04:14:35;;;;;;;;;;;;;;;4.15;54.33;92476.66;5048707;28;19943;-63
2023/11/03 04:17:00;;;;;;;;;;;;;;;3.46;53.16;92479.16;5049769;28;20371;-64
2023/11/03 04:19:26;;;;;;;;;;;;;;;4.30;51.39;92478.97;5042872;28;20017;-62
2023/11/03 04:21:51;;;;;;;;;;;;;;;4.22;51.22;92483.72;5049274;28;19977;-63
2023/11/03 04:24:16;;;;;;;;;;;;;;;4.28;51.58;92482.81;5041399;28;19948;-62
2023/11/03 04:26:41;;;;;;;;;;;;;;;4.32;51.14;92484.81;5050615;28;19941;-64
2023/11/03 04:29:07;;;;;;;;;;;;;;;3.26;53.44;92491.34;5041949;28;19913;-64
2023/11/03 04:31:34;;;;;;;;;;;;;;;3.80;53.03;92495.53;5052043;28;19982;-64
2023/11/03 04:33:59;;;;;;;;;;;;;;;3.38;54.35;92493.31;5041681;28;19935;-63
2023/11/03 04:36:24;;;;;;;;;;;;;;;3.68;53.16;92487.53;5040332;28;19929;-62
2023/11/03 04:38:49;;;;;;;;;;;;;;;3.97;51.93;92479.22;5040791;28;19977;-63
2023/11/03 04:41:15;;;;;;;;;;;;;;;3.70;52.62;92495.22;5041982;28;19977;-63
2023/11/03 04:43:41;;;;;;;;;;;;;;;3.46;53.43;92494.91;5043871;28;20013;-62
2023/11/03 04:46:08;;;;;;;;;;;;;;;3.37;54.66;92499.63;5039452;28;19941;-62
2023/11/03 04:48:33;;;;;;;;;;;;;;;3.63;52.83;92488.16;5043168;28;19967;-64
2023/11/03 04:50:58;;;;;;;;;;;;;;;2.84;54.72;92478.59;5040717;28;19957;-63
2023/11/03 04:53:24;;;;;;;;;;;;;;;3.36;53.67;92472.50;5041038;28;19974;-63
2023/11/03 04:55:49;;;;;;;;;;;;;;;3.40;53.37;92468.44;5044332;28;19981;-63
2023/11/03 04:58:15;;;;;;;;;;;;;;;3.55;53.25;92465.53;5044982;28;19980;-63
2023/11/03 05:00:40;;;;;;;;;;;;;;;3.14;54.28;92469.38;5043772;28;20482;-64
2023/11/03 05:03:06;;;;;;;;;;;;;;;2.82;54.18;92477.19;5047327;28;20040;-64
2023/11/03 05:05:32;;;;;;;;;;;;;;;3.02;55.26;92480.53;5042475;28;19948;-63
2023/11/03 05:07:57;;;;;;;;;;;;;;;3.59;53.21;92473.81;5041460;28;20013;-64
2023/11/03 05:10:23;;;;;;;;;;;;;;;2.52;55.71;92467.97;5048816;28;19935;-63
2023/11/03 05:12:48;;;;;;;;;;;;;;;2.64;56.00;92471.56;5046520;28;19997;-63
2023/11/03 05:15:13;;;;;;;;;;;;;;;2.96;54.29;92467.44;5045589;28;19958;-62
2023/11/03 05:17:39;;;;;;;;;;;;;;;2.37;57.04;92476.06;5028133;28;19966;-63
2023/11/03 05:20:07;;;;;;;;;;;;;;;2.86;54.91;92479.16;5044264;28;20025;-63
2023/11/03 05:22:32;;;;;;;;;;;;;;;2.50;55.97;92480.47;5045458;28;20386;-62
2023/11/03 05:24:57;;;;;;;;;;;;;;;2.50;56.54;92486.56;5049067;28;19958;-63
2023/11/03 05:27:23;;;;;;;;;;;;;;;2.38;57.49;92482.91;5047121;28;20667;-63
2023/11/03 05:29:48;;;;;;;;;;;;;;;2.51;56.00;92482.91;5040617;28;19939;-63
2023/11/03 05:32:13;;;;;;;;;;;;;;;2.68;56.57;92484.28;5042206;28;19951;-63
2023/11/03 05:34:40;;;;;;;;;;;;;;;3.38;54.19;92483.63;5040637;28;19942;-62
2023/11/03 05:37:05;;;;;;;;;;;;;;;3.39;53.92;92482.59;5043668;28;19978;-64
2023/11/03 05:39:32;;;;;;;;;;;;;;;2.26;57.37;92482.75;5042333;28;19965;-63
2023/11/03 05:41:57;;;;;;;;;;;;;;;3.49;54.72;92491.88;5044351;28;19944;-63
2023/11/03 05:44:24;;;;;;;;;;;;;;;3.69;53.40;92499.66;5043568;28;19962;-66
2023/11/03 05:46:49;;;;;;;;;;;;;;;3.16;55.42;92499.69;5040781;28;20606;-68
2023/11/03 05:49:14;;;;;;;;;;;;;;;3.90;57.67;92501.16;5040908;28;19955;-68
2023/11/03 05:51:39;;;;;;;;;;;;;;;4.15;54.64;92489.81;5038884;28;20590;-65
2023/11/03 05:54:05;;;;;;;;;;;;;;;3.60;53.74;92496.47;5042598;28;19942;-69
2023/11/03 05:56:30;;;;;;;;;;;;;;;3.32;57.74;92508.13;5043591;28;19962;-64
2023/11/03 05:58:56;;;;;;;;;;;;;;;3.46;52.91;92505.44;5045737;28;20316;-68
2023/11/03 06:01:21;;;;;;;;;;;;;;;4.09;53.58;92511.75;5045176;28;19931;-65
2023/11/03 06:03:46;;;;;;;;;;;;;;;3.51;54.85;92518.78;5044235;28;19951;-68
2023/11/03 06:06:12;;;;;;;;;;;;;;;4.40;53.15;92512.72;5045707;28;20056;-63
2023/11/03 06:08:37;;;;;;;;;;;;;;;3.25;55.37;92523.13;5046716;28;20024;-71
2023/11/03 06:11:02;;;;;;;;;;;;;;;3.65;53.81;92522.16;5045316;28;20139;-64
2023/11/03 06:13:27;;;;;;;;;;;;;;;4.23;52.64;92511.66;5051399;28;19938;-64
2023/11/03 06:15:53;;;;;;;;;;;;;;;3.69;53.69;92523.34;5042912;28;19967;-68
2023/11/03 06:18:18;;;;;;;;;;;;;;;3.92;53.16;92511.47;5037595;28;20042;-66
2023/11/03 06:20:43;;;;;;;;;;;;;;;4.12;52.44;92518.41;5047964;28;19962;-65
2023/11/03 06:23:08;;;;;;;;;;;;;;;2.47;58.48;92528.16;5053973;28;19963;-66
2023/11/03 06:25:34;;;;;;;;;;;;;;;3.33;55.64;92533.41;5050789;28;19940;-65
2023/11/03 06:27:59;;;;;;;;;;;;;;;2.42;56.61;92535.84;5044322;28;20301;-68
2023/11/03 06:30:24;;;;;;;;;;;;;;;2.47;57.77;92539.47;5043600;28;19965;-65
2023/11/03 06:32:50;;;;;;;;;;;;;;;3.79;54.41;92546.56;5043062;28;19963;-67
2023/11/03 06:35:15;;;;;;;;;;;;;;;3.50;54.91;92543.50;5044194;28;19952;-64
2023/11/03 06:37:40;;;;;;;;;;;;;;;2.78;57.23;92532.75;5052433;28;19958;-68
2023/11/03 06:40:10;;;;;;;;;;;;;;;3.68;55.21;92519.09;5047068;28;20049;-67
2023/11/03 06:42:35;;;;;;;;;;;;;;;2.69;57.13;92531.34;5045428;28;19944;-66
2023/11/03 06:45:00;;;;;;;;;;;;;;;2.59;57.38;92528.34;5044778;28;20529;-68
2023/11/03 06:47:26;;;;;;;;;;;;;;;2.87;57.17;92549.13;5040824;28;19953;-66
2023/11/03 06:49:51;;;;;;;;;;;;;;;3.06;56.03;92548.47;5047869;28;19948;-66
2023/11/03 06:52:16;;;;;;;;;;;;;;;3.44;55.25;92542.47;5048312;28;20181;-62
2023/11/03 06:54:43;;;;;;;;;;;;;;;3.42;55.08;92550.56;5045152;28;20380;-64
2023/11/03 06:57:08;;;;;;;;;;;;;;;3.32;54.47;92560.72;5044817;28;19985;-63
2023/11/03 06:59:34;;;;;;;;;;;;;;;2.82;56.70;92561.25;5049971;28;20424;-63
2023/11/03 07:01:59;;;;;;;;;;;;;;;3.80;53.91;92577.13;5048803;28;20410;-63
2023/11/03 07:04:24;;;;;;;;;;;;;;;3.94;53.11;92586.56;5045384;28;19949;-63
2023/11/03 07:06:50;;;;;;;;;;;;;;;2.93;56.71;92601.88;5046837;28;19949;-62
2023/11/03 07:09:16;;;;;;;;;;;;;;;3.89;55.45;92590.84;5048290;28;19930;-62
2023/11/03 07:11:41;;;;;;;;;;;;;;;4.39;53.63;92605.94;5044405;28;19924;-64
2023/11/03 07:14:06;;;;;;;;;;;;;;;4.05;54.41;92598.25;5028119;28;19948;-62
2023/11/03 07:16:33;;;;;;;;;;;;;;;4.37;55.79;92610.63;5048058;28;19966;-63
2023/11/03 07:18:58;;;;;;;;;;;;;;;4.66;54.21;92608.38;5040013;28;19990;-64
2023/11/03 07:21:23;;;;;;;;;;;;;;;5.02;57.37;92618.41;5039708;28;20295;-64
2023/11/03 07:23:48;;;;;;;;;;;;;;;5.13;53.70;92624.84;5044201;28;19958;-62
2023/11/03 07:26:14;;;;;;;;;;;;;;;5.55;54.70;92640.06;5047637;28;19921;-63
2023/11/03 07:28:40;;;;;;;;;;;;;;;5.64;57.26;92651.13;5049167;28;19920;-64
2023/11/03 07:31:10;;;;;;;;;;;;;;;5.68;53.34;92655.72;5046122;28;20012;-64
2023/11/03 07:33:36;;;;;;;;;;;;;;;4.02;53.62;92674.22;5048207;28;19929;-63
2023/11/03 07:36:01;;;;;;;;;;;;;;;4.60;52.51;92674.31;5045132;28;19967;-62
2023/11/03 07:38:27;;;;;;;;;;;;;;;5.06;54.13;92669.72;5044159;28;19943;-64
2023/11/03 07:40:53;;;;;;;;;;;;;;;5.59;53.89;92671.06;5049438;28;20578;-61
2023/11/03 07:43:20;;;;;;;;;;;;;;;4.39;56.70;92671.78;5044971;28;20344;-64
2023/11/03 07:45:45;;;;;;;;;;;;;;;5.26;55.19;92660.81;5048007;28;19931;-63
2023/11/03 07:48:11;;;;;;;;;;;;;;;5.31;50.83;92659.16;5042849;28;19994;-63
2023/11/03 07:50:36;;;;;;;;;;;;;;;5.38;50.38;92653.84;5039774;28;19935;-63
2023/11/03 07:53:03;;;;;;;;;;;;;;;4.89;53.75;92664.97;5039006;28;20664;-63
2023/11/03 07:55:28;;;;;;;;;;;;;;;5.05;51.66;92678.63;5040286;28;19925;-62
2023/11/03 07:57:53;;;;;;;;;;;;;;;2.90;56.41;92679.31;5039652;28;19932;-63
2023/11/03 08:00:19;;;;;;;;;;;;;;;4.22;53.83;92683.84;5043995;28;19997;-63
2023/11/03 08:02:45;;;;;;;;;;;;;;;5.17;51.89;92678.78;5041226;28;20584;-61
2023/11/03 08:05:10;;;;;;;;;;;;;;;5.21;51.15;92661.50;5044583;28;19948;-64
2023/11/03 08:07:35;;;;;;;;;;;;;;;4.67;52.82;92661.91;5041950;28;19928;-63
2023/11/03 08:10:01;;;;;;;;;;;;;;;4.98;52.07;92657.59;5047221;28;19973;-62
2023/11/03 08:12:26;;;;;;;;;;;;;;;4.97;51.71;92658.63;5046786;28;19959;-63
2023/11/03 08:14:52;;;;;;;;;;;;;;;2.77;57.55;92682.72;5043448;28;20350;-62
2023/11/03 08:17:19;;;;;;;;;;;;;;;4.14;55.17;92682.25;5045640;28;19961;-61
2023/11/03 08:19:45;;;;;;;;;;;;;;;4.17;53.92;92687.94;5048388;28;19944;-61
2023/11/03 08:22:11;;;;;;;;;;;;;;;4.61;53.30;92684.63;5044960;28;21061;-60
2023/11/03 08:24:37;;;;;;;;;;;;;;;4.53;53.21;92685.69;5038079;28;19949;-64
2023/11/03 08:27:02;;;;;;;;;;;;;;;5.41;50.78;92676.31;5048016;28;19958;-63
2023/11/03 08:29:28;;;;;;;;;;;;;;;5.72;50.09;92691.22;5046701;28;19929;-62
2023/11/03 08:31:53;;;;;;;;;;;;;;;5.69;49.88;92686.41;5040217;28;20630;-65
2023/11/03 08:34:20;;;;;;;;;;;;;;;3.45;55.37;92694.03;5034392;28;20378;-62
2023/11/03 08:36:46;;;;;;;;;;;;;;;4.19;54.22;92695.63;5045680;28;20633;-64
2023/11/03 08:39:11;;;;;;;;;;;;;;;5.12;52.63;92697.06;5040075;28;19924;-62
2023/11/03 08:41:36;;;;;;;;;;;;;;;3.91;54.52;92718.59;5040852;28;19936;-61
2023/11/03 08:44:02;;;;;;;;;;;;;;;3.90;53.93;92711.72;5023901;28;19954;-64
2023/11/03 08:46:27;;;;;;;;;;;;;;;4.53;52.52;92713.88;5042985;28;19927;-64
2023/11/03 08:48:54;;;;;;;;;;;;;;;4.72;52.32;92714.75;5041620;28;19997;-64
2023/11/03 08:51:20;;;;;;;;;;;;;;;5.18;51.34;92730.50;5043569;28;20126;-61
2023/11/03 08:53:45;;;;;;;;;;;;;;;4.44;53.14;92718.59;5036968;28;19964;-63
2023/11/03 08:56:14;;;;;;;;;;;;;;;4.51;52.76;92718.53;5038657;28;19964;-62
2023/11/03 08:58:42;;;;;;;;;;;;;;;4.73;52.58;92716.38;5039940;28;19920;-63
2023/11/03 09:01:07;;;;;;;;;;;;;;;4.36;52.86;92726.72;5041723;28;19962;-63
2023/11/03 09:03:33;;;;;;;;;;;;;;;4.72;52.32;92725.31;5040723;28;19964;-62
2023/11/03 09:05:59;;;;;;;;;;;;;;;4.87;52.02;92727.66;5040470;28;19940;-60
2023/11/03 09:08:25;;;;;;;;;;;;;;;4.31;53.87;92725.53;5038565;28;19920;-63
2023/11/03 09:10:50;;;;;;;;;;;;;;;4.58;52.19;92722.78;5036455;28;19935;-63
2023/11/03 09:13:16;;;;;;;;;;;;;;;4.43;52.87;92732.78;5040549;28;19966;-62
2023/11/03 09:15:44;;;;;;;;;;;;;;;5.05;52.09;92723.47;5037957;28;20198;-62
2023/11/03 09:18:09;;;;;;;;;;;;;;;5.30;50.98;92735.88;5041666;28;20116;-64
2023/11/03 09:20:34;;;;;;;;;;;;;;;5.31;50.63;92748.06;5038240;28;20414;-62
2023/11/03 09:22:59;;;;;;;;;;;;;;;4.71;51.21;92764.06;5037868;28;19932;-63
2023/11/03 09:25:26;;;;;;;;;;;;;;;4.79;51.71;92759.53;5047660;28;19925;-61
2023/11/03 09:27:51;;;;;;;;;;;;;;;5.11;51.22;92759.56;5040799;28;19926;-64
2023/11/03 09:30:16;;;;;;;;;;;;;;;4.44;53.80;92758.09;5041433;28;19927;-63
2023/11/03 09:32:42;;;;;;;;;;;;;;;4.52;51.98;92768.38;5038083;28;19961;-61
2023/11/03 09:35:09;;;;;;;;;;;;;;;4.17;53.33;92761.66;5039877;28;20045;-62
2023/11/03 09:37:34;;;;;;;;;;;;;;;4.21;53.31;92761.25;5041486;28;19967;-63
2023/11/03 09:40:00;;;;;;;;;;;;;;;3.66;54.74;92763.19;5040217;28;19964;-61
2023/11/03 09:42:25;;;;;;;;;;;;;;;3.28;56.08;92756.75;5041568;28;20726;-64
2023/11/03 09:44:50;;;;;;;;;;;;;;;3.68;55.52;92748.03;5041487;28;19961;-62
2023/11/03 09:47:16;;;;;;;;;;;;;;;3.22;55.58;92757.53;5040191;28;20559;-64
2023/11/03 09:49:43;;;;;;;;;;;;;;;3.55;55.96;92752.28;5046198;28;19936;-63
2023/11/03 09:52:09;;;;;;;;;;;;;;;3.26;57.26;92756.94;5044209;28;19952;-63
2023/11/03 09:54:37;;;;;;;;;;;;;;;3.60;55.79;92735.88;5045914;28;19942;-61
2023/11/03 09:57:02;;;;;;;;;;;;;;;3.79;55.91;92743.94;5051513;28;20356;-64
2023/11/03 09:59:30;;;;;;;;;;;;;;;4.34;56.20;92737.47;5044126;28;19960;-63
2023/11/03 10:01:55;;;;;;;;;;;;;;;4.18;53.95;92750.09;5044668;28;19936;-63
2023/11/03 10:04:21;;;;;;;;;;;;;;;3.23;56.44;92752.06;5044663;28;20528;-61
2023/11/03 10:06:47;;;;;;;;;;;;;;;3.88;54.42;92747.97;5036685;28;19934;-62
2023/11/03 10:09:16;;;;;;;;;;;;;;;4.46;53.52;92753.44;5047071;28;19935;-63
2023/11/03 10:11:41;;;;;;;;;;;;;;;4.78;52.79;92750.00;5040686;28;19925;-63
2023/11/03 10:14:06;;;;;;;;;;;;;;;4.16;53.11;92749.53;5046115;28;19937;-63
2023/11/03 10:16:32;;;;;;;;;;;;;;;4.05;53.69;92747.53;5045940;28;19963;-60
2023/11/03 10:18:57;;;;;;;;;;;;;;;4.90;51.56;92756.22;5036186;28;20398;-64
2023/11/03 10:21:23;;;;;;;;;;;;;;;4.75;51.96;92748.63;5040455;28;20558;-64
2023/11/03 10:23:48;;;;;;;;;;;;;;;5.28;50.90;92748.47;5045034;28;19953;-63
2023/11/03 10:26:14;;;;;;;;;;;;;;;5.48;50.49;92759.66;5044906;28;20459;-64
2023/11/03 10:28:41;;;;;;;;;;;;;;;4.72;51.21;92756.94;5047889;28;20640;-64
2023/11/03 10:31:06;;;;;;;;;;;;;;;4.76;51.18;92760.75;5050600;28;20033;-64
2023/11/03 10:33:31;;;;;;;;;;;;;;;4.78;51.27;92776.38;5045957;28;19944;-66
2023/11/03 10:35:56;;;;;;;;;;;;;;;5.27;50.39;92774.03;5044680;28;19987;-66
2023/11/03 10:38:23;;;;;;;;;;;;;;;4.78;52.09;92771.09;5048697;28;20434;-68
2023/11/03 10:40:48;;;;;;;;;;;;;;;4.42;52.73;92771.47;5049564;28;19963;-64
2023/11/03 10:43:14;;;;;;;;;;;;;;;5.76;49.39;92775.25;5046866;28;20347;-67
2023/11/03 10:45:39;;;;;;;;;;;;;;;6.19;47.45;92778.91;5045842;28;19975;-68
2023/11/03 10:48:09;;;;;;;;;;;;;;;6.02;48.11;92781.31;5047278;28;19954;-71
2023/11/03 10:50:35;;;;;;;;;;;;;;;6.20;47.48;92769.94;5048942;28;20014;-67
2023/11/03 10:53:19;;;;;;;;;;;;;;;4.82;51.17;92767.00;5045423;28;20730;-67
2023/11/03 10:55:46;;;;;;;;;;;;;;;5.14;51.26;92776.78;5047115;28;20604;-64
2023/11/03 10:58:12;;;;;;;;;;;;;;;6.04;47.91;92781.91;5044921;28;19928;-67
2023/11/03 11:00:44;;;;;;;;;;;;;;;4.46;51.82;92777.16;5049480;28;19920;-67
2023/11/03 11:03:24;;;;;;;;;;;;;;;5.44;49.71;92779.59;5049394;28;19921;-65
2023/11/03 11:05:52;;;;;;;;;;;;;;;5.92;48.53;92779.97;5048055;28;19924;-67
2023/11/03 11:08:17;;;;;;;;;;;;;;;6.08;48.35;92778.59;5047723;28;19924;-66
2023/11/03 11:10:45;;;;;;;;;;;;;;;5.36;49.85;92787.78;5045361;28;19946;-66
2023/11/03 11:13:17;;;;;;;;;;;;;;;4.75;50.94;92788.16;5047052;28;19962;-64
2023/11/03 11:15:43;;;;;;;;;;;;;;;4.40;52.39;92791.16;5047559;28;20335;-66
2023/11/03 11:18:15;;;;;;;;;;;;;;;4.69;51.76;92784.53;5045080;28;19945;-67
2023/11/03 11:20:40;;;;;;;;;;;;;;;4.68;51.79;92790.00;5047214;28;19954;-67
2023/11/03 11:23:05;;;;;;;;;;;;;;;4.82;52.44;92786.28;5047224;28;20563;-68
2023/11/03 11:25:33;;;;;;;;;;;;;;;4.22;54.03;92787.34;5048634;28;20035;-67
2023/11/03 11:27:59;;;;;;;;;;;;;;;2.52;57.19;92773.41;5048232;28;19956;-66
2023/11/03 11:30:24;;;;;;;;;;;;;;;4.54;53.23;92779.53;5047150;28;20316;-69
2023/11/03 11:32:53;;;;;;;;;;;;;;;5.34;50.59;92774.81;5041297;28;19955;-66
2023/11/03 11:35:19;;;;;;;;;;;;;;;5.55;51.18;92769.38;5045871;28;19959;-63
2023/11/03 11:37:44;;;;;;;;;;;;;;;5.34;50.82;92766.88;5042538;28;20218;-69
2023/11/03 11:40:10;;;;;;;;;;;;;;;5.20;50.42;92771.47;5045215;28;19963;-67
2023/11/03 11:42:42;;;;;;;;;;;;;;;4.11;52.35;92783.53;5045448;28;19921;-66
2023/11/03 11:45:07;;;;;;;;;;;;;;;4.30;52.20;92778.44;5045767;28;19954;-64
2023/11/03 11:47:33;;;;;;;;;;;;;;;4.02;53.20;92763.75;5041938;28;20431;-65
2023/11/03 11:49:59;;;;;;;;;;;;;;;4.42;52.64;92778.59;5048271;28;19968;-64
2023/11/03 11:52:25;;;;;;;;;;;;;;;5.56;50.47;92781.53;5044366;28;20046;-64
2023/11/03 11:54:51;;;;;;;;;;;;;;;5.57;50.12;92799.78;5042026;28;20007;-65
2023/11/03 11:57:16;;;;;;;;;;;;;;;6.19;48.30;92777.06;5041995;28;19976;-66
2023/11/03 11:59:42;;;;;;;;;;;;;;;6.13;47.09;92780.59;5041923;28;19928;-66
2023/11/03 12:02:08;;;;;;;;;;;;;;;5.85;49.00;92798.53;5047767;28;19927;-64
2023/11/03 12:04:36;;;;;;;;;;;;;;;5.92;47.95;92801.09;5045090;28;19960;-65
2023/11/03 12:07:01;;;;;;;;;;;;;;;5.27;49.96;92799.63;5045389;28;19960;-65
2023/11/03 12:09:26;;;;;;;;;;;;;;;4.92;51.00;92799.00;5044200;28;19912;-65
2023/11/03 12:11:52;;;;;;;;;;;;;;;4.22;52.76;92799.72;5045852;28;20049;-66
2023/11/03 12:14:18;;;;;;;;;;;;;;;5.65;49.05;92808.47;5042456;28;19924;-64
2023/11/03 12:16:43;;;;;;;;;;;;;;;7.21;46.01;92799.63;5045053;28;20429;-64
2023/11/03 12:19:11;;;;;;;;;;;;;;;6.23;47.28;92802.00;5041194;28;19935;-65
2023/11/03 12:21:38;;;;;;;;;;;;;;;6.46;47.24;92807.69;5046346;28;20115;-65
2023/11/03 12:24:04;;;;;;;;;;;;;;;7.28;44.79;92800.34;5045827;28;19929;-64
2023/11/03 12:26:29;;;;;;;;;;;;;;;7.62;42.85;92803.25;5043527;28;20384;-64
2023/11/03 12:29:15;;;;;;;;;;;;;;;8.13;41.89;92794.09;5046063;28;20622;-65
2023/11/03 12:31:40;;;;;;;;;;;;;;;10.12;38.42;92800.03;5049643;28;20528;-64
2023/11/03 12:34:08;;;;;;;;;;;;;;;9.05;40.02;92812.09;5044345;28;20130;-66
2023/11/03 12:36:34;;;;;;;;;;;;;;;7.75;42.46;92809.38;5042892;28;19928;-67
2023/11/03 12:38:59;;;;;;;;;;;;;;;7.38;43.45;92807.72;5042810;28;19916;-64
2023/11/03 12:41:24;;;;;;;;;;;;;;;7.92;42.24;92807.69;5045148;28;19931;-66
2023/11/03 12:43:49;;;;;;;;;;;;;;;7.27;46.25;92801.34;5042777;28;19921;-65
2023/11/03 12:46:15;;;;;;;;;;;;;;;8.38;41.33;92817.69;5045870;28;19921;-67
2023/11/03 12:48:40;;;;;;;;;;;;;;;10.40;37.14;92810.78;5042316;28;19928;-66
2023/11/03 12:51:07;;;;;;;;;;;;;;;12.38;35.80;92803.59;5048274;28;19928;-65